Latest Weather Observations for Moomba Airport

IDS60801

Issued at 2:35 pm CST Wednesday 17 September 2014 (issued every 30 minutes, with the page automatically refreshed every 10 minutes)

About weather observations | Map of weather stations | Latest weather observations for SA | Other Formats
Station Details ID: 017123 Name: MOOMBA AIRPORT Lat: -28.10 Lon: 140.20 Height: 37.8 m
Data from the previous 72 hours. | See also: Recent months at Moomba Airport
Date/Time
CST
Temp
°C
App
Temp
°C
Dew
Point
Rel
Hum
%
Delta-T
°C
Wind Press
QNH
hPa
Press
MSL
hPa
Rain
since 9 am
mm
Dir
 
Spd
km/h
Gust
km/h
Spd
kts
Gust
kts
17/02:30pm 23.4 17.7 -0.8 20 10.8 S 19 26 10 14 1018.9 1018.8 0.0
17/02:00pm 22.8 16.7 -2.0 19 10.8 SSW 20 33 11 18 1019.1 1019.0 0.0
17/01:30pm 22.3 16.4 -1.1 21 10.3 SSW 20 32 11 17 1019.2 1019.1 0.0
17/01:00pm 22.6 16.9 -0.8 21 10.4 SSW 19 30 10 16 1019.6 1019.5 0.0
17/12:30pm 22.5 16.4 0.4 23 10.0 S 22 33 12 18 1019.9 1019.8 0.0
17/12:00pm 21.9 16.3 1.0 25 9.5 SSE 20 32 11 17 1020.1 1020.0 0.0
17/11:30am 21.2 15.6 1.5 27 9.0 S 20 30 11 16 1020.5 1020.4 0.0
17/11:00am 20.8 15.3 1.6 28 8.8 S 20 30 11 16 1021.1 1021.0 0.0
17/10:30am 20.1 14.5 1.0 28 8.6 S 20 28 11 15 1021.5 1021.4 0.0
17/10:00am 19.0 12.9 0.6 29 8.2 S 22 28 12 15 1021.6 1021.5 0.0
17/09:30am 19.0 13.6 1.1 30 8.0 S 19 28 10 15 1021.7 1021.6 0.0
17/09:00am 17.1 11.9 0.3 32 7.3 S 17 22 9 12 1021.5 1021.4 0.0
17/08:30am 16.6 11.9 1.1 35 6.8 S 15 22 8 12 1021.6 1021.5 0.0
17/08:00am 14.4 10.0 0.6 39 5.9 S 13 17 7 9 1021.1 1021.0 0.0
17/07:30am 13.7 10.5 0.7 41 5.5 SW 7 11 4 6 1021.0 1020.9 0.0
17/07:00am 12.8 9.5 0.2 42 5.2 SW 7 11 4 6 1020.4 1020.3 0.0
17/06:30am 11.9 8.2 -0.3 43 5.0 SSW 9 13 5 7 1019.9 1019.8 0.0
17/06:00am 12.2 8.1 0.0 43 5.0 SSW 11 15 6 8 1019.2 1019.1 0.0
17/05:30am 12.7 8.2 -0.2 41 5.3 SSW 13 17 7 9 1018.8 1018.7 0.0
17/05:00am 12.5 8.0 0.0 42 5.2 SSW 13 17 7 9 1018.3 1018.2 0.0
17/04:30am 10.4 6.7 -2.9 39 5.0 SW 7 9 4 5 1018.0 1017.9 0.0
17/04:00am 10.7 6.6 -2.7 39 5.1 SW 9 11 5 6 1017.8 1017.7 0.0
17/03:30am 11.2 7.2 -2.6 38 5.3 SW 9 9 5 5 1017.4 1017.3 0.0
17/03:00am 11.3 7.6 -3.2 36 5.5 SW 7 9 4 5 1017.7 1017.6 0.0
17/02:30am 12.2 8.6 -2.4 36 5.7 SSW 7 7 4 4 1017.8 1017.7 0.0
17/02:00am 11.9 8.2 -3.1 35 5.7 SW 7 9 4 5 1018.5 1018.4 0.0
17/01:30am 12.9 8.8 -3.0 33 6.1 SW 9 11 5 6 1018.5 1018.4 0.0
17/01:00am 13.6 9.2 -2.8 32 6.4 SW 11 13 6 7 1018.6 1018.5 0.0
17/12:30am 13.9 9.1 -2.9 31 6.6 SW 13 17 7 9 1018.6 1018.5 0.0
17/12:00am 13.3 8.8 -3.4 31 6.4 WSW 11 15 6 8 1019.0 1018.9 0.0
 
Date/Time
CST
Temp
°C
App
Temp
°C
Dew
Point
Rel
Hum
%
Delta-T
°C
Wind Press
QNH
hPa
Press
MSL
hPa
Rain
since 9 am
mm
Dir
 
Spd
km/h
Gust
km/h
Spd
kts
Gust
kts
16/11:30pm 14.5 10.5 -2.4 31 6.7 WSW 9 11 5 6 1018.2 1018.1 0.0
16/11:00pm 14.4 10.9 -1.6 33 6.5 W 7 11 4 6 1018.5 1018.4 0.0
16/10:30pm 15.3 11.4 -1.7 31 6.9 W 9 11 5 6 1018.5 1018.4 0.0
16/10:00pm 15.7 13.4 -2.3 29 7.3 CALM 0 9 0 5 1018.4 1018.3 0.0
16/09:30pm 15.9 13.6 -2.1 29 7.3 CALM 0 0 0 0 1018.5 1018.4 0.0
16/09:00pm 16.4 12.8 -2.1 28 7.6 SSW 7 7 4 4 1018.3 1018.2 0.0
16/08:30pm 17.0 13.4 -2.1 27 7.9 SW 7 9 4 5 1018.0 1017.9 0.0
16/08:00pm 18.6 15.2 -0.7 27 8.3 S 7 9 4 5 1017.4 1017.3 0.0
16/07:30pm 20.0 16.2 -0.6 25 9.0 S 9 13 5 7 1017.0 1016.9 0.0
16/07:00pm 19.5 16.0 -1.0 25 8.8 SSW 7 9 4 5 1016.9 1016.8 0.0
16/06:30pm 20.9 17.1 -1.0 23 9.6 SW 9 13 5 7 1016.6 1016.5 0.0
16/06:00pm 22.1 18.0 0.0 23 9.9 SW 11 15 6 8 1016.3 1016.2 0.0
16/05:30pm 22.7 18.4 1.1 24 10.0 SW 13 17 7 9 1016.0 1015.9 0.0
16/05:00pm 23.3 18.8 -0.2 21 10.6 WSW 13 20 7 11 1015.9 1015.8 0.0
16/04:30pm 23.5 18.3 -0.1 21 10.7 SW 17 24 9 13 1015.9 1015.8 0.0
16/04:00pm 23.8 18.9 -0.5 20 11.0 SW 15 22 8 12 1015.8 1015.7 0.0
16/03:30pm 23.9 18.7 0.3 21 10.8 SW 17 28 9 15 1015.8 1015.7 0.0
16/03:00pm 23.8 19.9 1.4 23 10.5 WSW 11 20 6 11 1015.9 1015.8 0.0
16/02:30pm 23.8 19.6 1.4 23 10.5 SW 13 20 7 11 1016.1 1016.0 0.0
16/02:00pm 23.4 18.7 1.1 23 10.4 WSW 15 20 8 11 1016.3 1016.2 0.0
16/01:30pm 22.8 17.4 2.3 26 9.7 SSW 20 26 11 14 1016.9 1016.8 0.0
16/01:00pm 22.8 18.3 2.3 26 9.7 SSW 15 26 8 14 1017.3 1017.2 0.0
16/12:30pm 22.1 18.3 3.7 30 8.9 SSW 13 22 7 12 1017.7 1017.6 0.0
16/12:00pm 21.9 17.1 4.5 32 8.5 SSW 19 26 10 14 1018.2 1018.1 0.0
16/11:30am 21.0 16.6 4.6 34 8.0 S 17 28 9 15 1018.9 1018.8 0.0
16/11:00am 20.1 16.9 5.0 37 7.4 S 11 20 6 11 1019.3 1019.2 0.0
16/10:30am 19.8 15.9 5.5 39 7.0 S 15 26 8 14 1019.7 1019.6 0.0
16/10:00am 19.0 14.4 5.8 42 6.5 S 19 24 10 13 1020.0 1019.9 0.0
16/09:30am 18.2 13.5 6.1 45 5.9 S 20 26 11 14 1020.1 1020.0 0.0
16/09:00am 18.0 13.3 5.9 45 5.9 SSE 20 30 11 16 1020.2 1020.1 0.0
16/08:30am 16.7 11.3 6.2 50 5.1 SSE 24 32 13 17 1020.0 1019.9 0.0
16/08:00am 15.9 10.8 6.1 52 4.8 SE 22 30 12 16 1019.7 1019.6 0.0
16/07:30am 14.6 10.0 5.7 55 4.2 SSE 19 28 10 15 1019.6 1019.5 0.0
16/07:00am 12.8 8.7 4.3 56 3.9 S 15 17 8 9 1019.4 1019.3 0.0
16/06:30am 11.8 8.4 3.8 58 3.6 S 11 15 6 8 1019.0 1018.9 0.0
16/06:00am 11.9 8.4 3.4 56 3.8 S 11 17 6 9 1018.7 1018.6 0.0
16/05:30am 13.0 8.5 4.2 55 4.0 S 17 20 9 11 1018.0 1017.9 0.0
16/05:00am 14.0 9.6 4.6 53 4.4 S 17 22 9 12 1017.4 1017.3 0.0
16/04:30am 13.5 9.3 3.6 51 4.5 S 15 19 8 10 1017.1 1017.0 0.0
16/04:00am 12.9 9.6 2.5 49 4.6 S 9 13 5 7 1017.0 1016.9 0.0
16/03:30am 13.6 10.7 2.8 48 4.8 S 7 9 4 5 1016.7 1016.6 0.0
16/03:00am 14.6 11.0 3.1 46 5.2 S 11 15 6 8 1016.5 1016.4 0.0
16/02:30am 15.1 11.2 3.3 45 5.4 S 13 19 7 10 1016.4 1016.3 0.0
16/02:00am 14.9 10.9 2.8 44 5.4 S 13 19 7 10 1016.5 1016.4 0.0
16/01:30am 14.8 11.1 2.4 43 5.5 SSW 11 13 6 7 1016.7 1016.6 0.0
16/01:00am 14.9 12.0 2.4 43 5.6 SSW 7 9 4 5 1016.6 1016.5 0.0
16/12:30am 15.8 12.5 2.6 41 5.9 SW 9 11 5 6 1016.7 1016.6 0.0
16/12:00am 16.7 13.4 2.7 39 6.4 SSW 9 11 5 6 1016.6 1016.5 0.0
 
Date/Time
CST
Temp
°C
App
Temp
°C
Dew
Point
Rel
Hum
%
Delta-T
°C
Wind Press
QNH
hPa
Press
MSL
hPa
Rain
since 9 am
mm
Dir
 
Spd
km/h
Gust
km/h
Spd
kts
Gust
kts
15/11:30pm 18.0 14.9 3.5 38 6.8 S 9 13 5 7 1016.6 1016.5 0.0
15/11:00pm 18.5 15.0 3.6 37 7.0 SSW 11 15 6 8 1016.5 1016.4 0.0
15/10:30pm 19.5 15.7 4.0 36 7.4 S 13 19 7 10 1016.4 1016.3 0.0
15/10:00pm 20.4 15.3 4.0 34 7.9 SW 20 26 11 14 1016.4 1016.3 0.0
15/09:30pm 20.7 16.1 3.9 33 8.1 SW 17 24 9 13 1016.2 1016.1 0.0
15/09:00pm 21.0 16.9 4.1 33 8.2 SW 15 20 8 11 1016.1 1016.0 0.0
15/08:30pm 21.4 16.8 3.6 31 8.5 SSW 17 20 9 11 1015.8 1015.7 0.0
15/08:00pm 21.9 17.7 3.6 30 8.8 SSW 15 17 8 9 1015.3 1015.2 0.0
15/07:30pm 22.8 18.5 3.4 28 9.4 SSW 15 19 8 10 1014.8 1014.7 0.0
15/07:00pm 23.6 19.3 3.0 26 9.9 SSW 15 22 8 12 1014.3 1014.2 0.0
15/06:30pm 24.8 19.5 2.9 24 10.6 SW 20 26 11 14 1013.8 1013.7 0.0
15/06:00pm 25.9 20.3 3.2 23 11.2 SW 22 30 12 16 1013.5 1013.4 0.0
15/05:30pm 26.6 20.7 3.8 23 11.4 SW 24 35 13 19 1013.2 1013.1 0.0
15/05:00pm 27.2 19.9 2.3 20 12.2 SW 30 39 16 21 1013.0 1012.9 0.0
15/04:30pm 28.1 20.8 2.3 19 12.7 SW 30 39 16 21 1012.8 1012.7 0.0
15/04:00pm 28.6 21.0 2.7 19 12.9 WSW 32 41 17 22 1012.6 1012.5 0.0
15/03:30pm 28.9 21.1 3.0 19 13.0 WSW 33 44 18 24 1012.5 1012.4 0.0
15/03:00pm 29.4 21.4 1.8 17 13.6 W 33 46 18 25 1012.7 1012.6 0.0
15/02:30pm 29.2 22.4 0.8 16 13.7 W 26 43 14 23 1012.9 1012.8 0.0
15/02:00pm 29.7 21.1 0.3 15 14.1 W 35 46 19 25 1013.1 1013.0 0.0
15/01:36pm 29.7 21.8 -1.6 13 14.5 W 30 48 16 26 1013.3 1013.2 0.0
15/01:30pm 29.8 22.0 -0.5 14 14.3 W 30 41 16 22 1013.5 1013.4 0.0
15/01:20pm 29.2 21.6 0.8 16 13.7 W 30 48 16 26 1013.5 1013.4 0.0
15/01:00pm 29.2 21.1 -0.1 15 13.9 W 32 43 17 23 1013.9 1013.8 0.0
15/12:30pm 28.5 22.0 0.3 16 13.4 W 24 39 13 21 1014.2 1014.1 0.0
15/12:00pm 28.1 21.3 -1.9 14 13.7 W 24 32 13 17 1014.6 1014.5 0.0
15/11:30am 27.8 19.6 -4.2 12 14.0 W 30 48 16 26 1014.9 1014.8 0.0
15/11:24am 28.6 20.7 -4.7 11 14.5 W 28 48 15 26 1014.8 1014.7 0.0
15/11:00am 28.1 20.7 -3.9 12 14.1 W 26 37 14 20 1015.2 1015.1 0.0
15/10:30am 27.1 20.2 -2.7 14 13.3 WNW 24 35 13 19 1015.5 1015.4 0.0
15/10:00am 25.9 19.3 -3.6 14 12.8 W 22 30 12 16 1015.9 1015.8 0.0
15/09:30am 25.1 18.5 -3.3 15 12.3 W 22 32 12 17 1015.9 1015.8 0.0
15/09:00am 25.4 19.2 -3.1 15 12.4 NNW 20 24 11 13 1015.7 1015.6 0.0
15/08:30am 22.9 16.3 -3.4 17 11.1 N 22 28 12 15 1015.5 1015.4 0.0
15/08:00am 21.3 16.0 -4.0 18 10.5 NNW 15 20 8 11 1015.8 1015.7 0.0
15/07:30am 18.5 14.3 -4.2 21 9.1 NW 9 15 5 8 1015.7 1015.6 0.0
15/07:00am 16.2 12.5 -4.4 24 8.0 NNW 6 9 3 5 1015.4 1015.3 0.0
15/06:30am 13.5 8.8 -5.1 27 6.9 NNW 11 15 6 8 1015.2 1015.1 0.0
15/06:00am 12.7 7.5 -6.3 26 6.8 W 13 17 7 9 1015.1 1015.0 0.0
15/05:30am 14.2 9.1 -5.0 26 7.2 N 13 15 7 8 1014.3 1014.2 0.0
15/05:00am 15.0 9.1 -5.4 24 7.7 N 17 20 9 11 1014.2 1014.1 0.0
15/04:30am 14.9 10.2 -5.5 24 7.6 N 11 15 6 8 1014.1 1014.0 0.0
15/04:00am 15.0 8.7 -5.9 23 7.8 NNE 19 20 10 11 1013.6 1013.5 0.0
15/03:30am 16.3 10.4 -5.4 22 8.3 N 17 19 9 10 1014.0 1013.9 0.0
15/03:00am 15.7 9.8 -5.3 23 8.0 NNE 17 17 9 9 1014.2 1014.1 0.0
15/02:30am 16.0 10.1 -5.7 22 8.2 NNE 17 17 9 9 1014.5 1014.4 0.0
15/02:00am 16.8 11.3 -5.6 21 8.6 NNE 15 17 8 9 1014.8 1014.7 0.0
15/01:30am 16.7 10.9 -5.1 22 8.4 NNE 17 19 9 10 1014.9 1014.8 0.0
15/01:00am 17.0 11.6 -4.8 22 8.5 NNE 15 17 8 9 1015.1 1015.0 0.0
15/12:30am 16.6 11.4 -5.8 21 8.5 NE 13 15 7 8 1015.5 1015.4 0.0
15/12:00am 17.1 12.7 -6.0 20 8.8 NE 9 13 5 7 1015.7 1015.6 0.0
 
Date/Time
CST
Temp
°C
App
Temp
°C
Dew
Point
Rel
Hum
%
Delta-T
°C
Wind Press
QNH
hPa
Press
MSL
hPa
Rain
since 9 am
mm
Dir
 
Spd
km/h
Gust
km/h
Spd
kts
Gust
kts
14/11:30pm 17.5 12.7 -5.7 20 8.9 ENE 11 13 6 7 1016.0 1015.9 0.0
14/11:00pm 17.8 12.6 -6.1 19 9.1 ENE 13 13 7 7 1016.1 1016.0 0.0
14/10:30pm 16.9 11.6 -6.8 19 8.8 ENE 13 15 7 8 1016.4 1016.3 0.0
14/10:00pm 16.3 12.0 -8.8 17 8.9 SE 7 17 4 9 1016.6 1016.5 0.0
14/09:30pm 19.0 16.2 -6.6 17 9.8 CALM 0 0 0 0 1016.7 1016.6 0.0
14/09:00pm 19.2 15.4 -5.7 18 9.7 SW 6 7 3 4 1016.8 1016.7 0.0
14/08:30pm 21.2 18.6 -4.8 17 10.5 CALM 0 0 0 0 1016.8 1016.7 0.0
14/08:00pm 21.6 17.9 -4.5 17 10.7 WSW 6 7 3 4 1016.7 1016.6 0.0
14/07:30pm 22.7 18.9 -5.2 15 11.4 WSW 6 7 3 4 1016.4 1016.3 0.0
14/07:00pm 22.4 18.5 -6.4 14 11.5 W 6 7 3 4 1016.1 1016.0 0.0
14/06:30pm 25.7 21.7 -5.8 12 13.1 WNW 7 9 4 5 1015.7 1015.6 0.0
14/06:00pm 27.5 23.7 -5.6 11 14.0 WNW 6 7 3 4 1015.5 1015.4 0.0
14/05:30pm 28.7 24.8 -4.6 11 14.5 NW 7 11 4 6 1015.4 1015.3 0.0
14/05:00pm 29.2 25.4 -5.5 10 15.0 WSW 6 13 3 7 1015.4 1015.3 0.0
14/04:30pm 29.5 24.8 -5.3 10 15.1 WNW 11 15 6 8 1015.4 1015.3 0.0
14/04:00pm 30.4 26.5 -4.6 10 15.5 NNW 7 22 4 12 1015.5 1015.4 0.0
14/03:30pm 29.9 24.6 -3.7 11 15.0 W 15 20 8 11 1015.6 1015.5 0.0
14/03:00pm 29.9 25.0 -3.7 11 15.0 WNW 13 20 7 11 1015.8 1015.7 0.0

Other Formats:

Comma delimited format used in spreadsheet applications
http://www.bom.gov.au/fwo/IDS60801/IDS60801.95481.axf

JavaScript Object Notation format (JSON) in row-major order
http://www.bom.gov.au/fwo/IDS60801/IDS60801.95481.json